Time;durP1;ratioP1;P1;durP2;ratioP2;P2;SDS_P1;SDS_P2;PMS_P1;PMS_P2;Temp;Humidity;BMP_temperature;BMP_pressure;BME280_temperature;BME280_humidity;BME280_pressure;Samples;Min_cycle;Max_cycle;Signal;HPM_P1;HPM_P2
2022/01/26 00:07:09;;;;;;;3.05;1.80;;;;;;;12.16;40.49;101638.34;6183612;23;20486;-77
2022/01/26 00:09:37;;;;;;;2.55;1.80;;;;;;;12.11;40.79;101632.09;6187183;23;20029;-77
2022/01/26 00:12:09;;;;;;;4.00;2.33;;;;;;;12.05;40.06;101630.19;6183430;23;20024;-76
2022/01/26 00:14:41;;;;;;;3.17;1.93;;;;;;;12.01;40.93;101632.59;6182964;23;20025;-76
2022/01/26 00:17:11;;;;;;;2.47;2.28;;;;;;;11.95;40.72;101633.25;6183393;23;20017;-75
2022/01/26 00:19:50;;;;;;;3.95;1.45;;;;;;;11.90;40.58;101635.66;6183557;23;20028;-81
2022/01/26 00:22:37;;;;;;;2.95;1.45;;;;;;;11.86;40.09;101638.94;6186051;22;20092;-80
2022/01/26 00:25:22;;;;;;;2.05;1.23;;;;;;;11.79;39.97;101625.69;6183483;23;20021;-79
2022/01/26 00:27:55;;;;;;;1.58;1.10;;;;;;;11.74;40.94;101628.09;6183500;23;20017;-82
2022/01/26 00:38:38;;;;;;;2.33;1.42;;;;;;;11.48;41.94;101619.31;6132853;23;20017;-77
2022/01/26 00:41:10;;;;;;;2.10;1.53;;;;;;;11.40;42.01;101621.56;6183335;23;20079;-78
2022/01/26 00:43:45;;;;;;;5.05;2.05;;;;;;;11.35;41.01;101623.09;6182389;23;20017;-78
2022/01/26 00:46:13;;;;;;;2.95;1.65;;;;;;;11.28;41.62;101621.09;6184602;23;20112;-84
2022/01/26 00:48:42;;;;;;;2.17;1.30;;;;;;;11.21;41.73;101619.97;6185756;23;20359;-83
2022/01/26 00:51:15;;;;;;;2.85;1.85;;;;;;;11.08;42.29;101617.69;6183244;23;20020;-84
2022/01/26 00:53:46;;;;;;;2.88;1.33;;;;;;;10.97;42.58;101616.34;6183641;23;20055;-82
2022/01/26 00:56:16;;;;;;;2.20;1.35;;;;;;;10.86;43.52;101626.28;6185048;23;20021;-81
2022/01/26 00:58:46;;;;;;;3.00;1.60;;;;;;;10.76;41.40;101624.09;6186284;23;20021;-82
2022/01/26 01:01:15;;;;;;;2.05;1.23;;;;;;;10.66;45.04;101622.84;6185749;23;20021;-86
2022/01/26 01:03:45;;;;;;;2.03;1.30;;;;;;;10.50;42.98;101616.09;6184895;23;20478;-78
2022/01/26 01:06:20;;;;;;;2.67;1.60;;;;;;;10.34;42.17;101598.16;6187741;23;20021;-78
2022/01/26 01:08:49;;;;;;;4.78;3.00;;;;;;;10.17;43.84;101600.84;6187066;23;20017;-76
2022/01/26 01:11:18;;;;;;;4.43;2.70;;;;;;;10.03;43.64;101594.16;6185516;23;20474;-78
2022/01/26 01:13:48;;;;;;;2.42;1.50;;;;;;;9.86;44.38;101598.56;6195182;23;20021;-85
2022/01/26 01:16:20;;;;;;;4.95;1.42;;;;;;;9.69;45.68;101595.22;6188255;23;20099;-81
2022/01/26 01:18:56;;;;;;;2.03;1.33;;;;;;;9.55;45.58;101602.31;6187465;23;20028;-87
2022/01/26 01:27:41;;;;;;;2.95;1.35;;;;;;;9.12;47.27;101578.72;6093998;23;20097;-83
2022/01/26 01:30:25;;;;;;;2.03;1.25;;;;;;;8.94;47.43;101579.59;6183507;23;20021;-83
2022/01/26 01:33:03;;;;;;;2.08;1.30;;;;;;;8.80;47.73;101576.31;6184541;23;20021;-82
2022/01/26 01:35:33;;;;;;;2.65;1.58;;;;;;;8.69;47.23;101574.03;6185232;23;20028;-83
2022/01/26 01:38:08;;;;;;;3.15;1.55;;;;;;;8.62;47.76;101582.25;6184698;23;20052;-84
2022/01/26 01:40:39;;;;;;;2.42;1.27;;;;;;;8.53;48.47;101578.41;6184079;23;20031;-83
2022/01/26 01:43:08;;;;;;;3.75;1.40;;;;;;;8.45;49.25;101581.38;6181865;23;20025;-82
2022/01/26 01:45:41;;;;;;;3.10;1.60;;;;;;;8.36;51.63;101582.66;6182366;23;20238;-83
2022/01/26 01:48:11;;;;;;;6.25;2.70;;;;;;;8.27;49.45;101581.28;6186302;23;20017;-87
2022/01/26 01:50:41;;;;;;;7.22;3.65;;;;;;;8.23;49.22;101579.38;6187969;23;20081;-86
2022/01/26 01:53:10;;;;;;;9.38;4.47;;;;;;;8.16;49.24;101584.19;6186916;23;20527;-84
2022/01/26 01:55:41;;;;;;;6.53;3.60;;;;;;;8.08;48.35;101576.88;6186005;23;20053;-80
2022/01/26 01:58:10;;;;;;;8.27;4.00;;;;;;;8.08;48.58;101587.19;6185512;23;20021;-86
2022/01/26 02:00:41;;;;;;;7.85;3.33;;;;;;;8.06;48.81;101575.91;6185561;23;20083;-80
2022/01/26 02:03:09;;;;;;;7.25;3.10;;;;;;;8.02;48.99;101568.81;6187501;23;20025;-85
2022/01/26 02:05:38;;;;;;;3.63;1.85;;;;;;;7.97;48.81;101586.59;6184568;23;20029;-85
2022/01/26 02:08:07;;;;;;;6.53;2.78;;;;;;;7.91;49.42;101591.44;6184620;23;20029;-83
2022/01/26 02:10:36;;;;;;;8.02;3.40;;;;;;;7.87;50.51;101602.38;6186318;23;20021;-87
2022/01/26 02:13:15;;;;;;;14.30;6.93;;;;;;;7.85;49.96;101596.25;6184787;23;20021;-82
2022/01/26 02:15:51;;;;;;;16.23;8.55;;;;;;;7.81;49.33;101591.75;6183758;23;20053;-85
2022/01/26 02:18:35;;;;;;;15.68;7.95;;;;;;;7.80;50.58;101593.44;6183139;23;20056;-87
2022/01/26 02:52:03;;;;;;;4.65;2.70;;;;;;;7.15;52.16;101570.97;6153219;23;20028;-83
2022/01/26 02:54:47;;;;;;;5.35;2.50;;;;;;;7.08;51.84;101566.28;6154223;23;20017;-84
2022/01/26 03:00:15;;;;;;;4.70;2.55;;;;;;;7.01;53.40;101552.19;6141474;23;20025;-84
2022/01/26 03:02:49;;;;;;;3.80;2.42;;;;;;;6.95;52.95;101543.25;6157180;23;20021;-84
2022/01/26 03:05:20;;;;;;;4.13;2.38;;;;;;;6.80;53.09;101541.53;6156576;23;20022;-82
2022/01/26 03:07:54;;;;;;;4.32;1.95;;;;;;;6.70;52.12;101532.41;6155192;23;20099;-85
2022/01/26 03:10:32;;;;;;;3.28;1.33;;;;;;;6.65;52.62;101535.53;6155544;23;20068;-83
2022/01/26 03:13:06;;;;;;;4.05;1.65;;;;;;;6.66;52.72;101539.88;6154326;23;20028;-85
2022/01/26 03:15:35;;;;;;;1.67;1.20;;;;;;;6.63;52.95;101556.00;6155413;23;20033;-86
2022/01/26 03:21:09;;;;;;;1.95;1.25;;;;;;;6.48;54.21;101558.59;6121388;23;20084;-83
2022/01/26 03:29:28;;;;;;;2.13;1.20;;;;;;;6.31;54.25;101632.91;6183807;23;20056;-82
2022/01/26 03:34:53;;;;;;;1.98;1.30;;;;;;;6.29;54.03;101636.25;6098666;23;20023;-83
2022/01/26 03:37:26;;;;;;;2.58;1.35;;;;;;;6.28;53.25;101631.06;6183067;23;20017;-86
2022/01/26 03:39:55;;;;;;;1.83;1.00;;;;;;;6.30;51.80;101634.63;6184954;23;20358;-84
2022/01/26 03:42:25;;;;;;;2.72;1.20;;;;;;;6.31;53.38;101632.91;6184054;23;20044;-83
2022/01/26 03:44:53;;;;;;;3.40;1.45;;;;;;;6.27;53.07;101629.25;6184348;23;20033;-83
2022/01/26 03:47:22;;;;;;;2.17;1.17;;;;;;;6.27;52.80;101634.41;6184195;23;20021;-83
2022/01/26 03:49:50;;;;;;;2.08;1.20;;;;;;;6.26;51.44;101619.78;6184580;23;20068;-85
2022/01/26 03:52:19;;;;;;;2.80;1.38;;;;;;;6.26;52.37;101619.78;6183361;23;20053;-81
2022/01/26 03:54:48;;;;;;;2.53;1.20;;;;;;;6.23;51.88;101614.44;6185227;23;20029;-81
2022/01/26 03:57:16;;;;;;;2.45;1.20;;;;;;;6.17;53.36;101614.09;6184567;23;20027;-85
2022/01/26 03:59:46;;;;;;;1.38;1.00;;;;;;;6.15;54.12;101620.81;6189478;23;20029;-83
2022/01/26 04:02:15;;;;;;;1.55;0.90;;;;;;;6.12;53.80;101608.69;6186424;23;20021;-82
2022/01/26 04:04:49;;;;;;;1.95;1.10;;;;;;;6.13;53.24;101607.00;6184338;23;20400;-83
2022/01/26 04:07:17;;;;;;;1.58;0.95;;;;;;;6.15;53.40;101601.13;6185808;23;20325;-88
2022/01/26 04:09:46;;;;;;;1.77;0.80;;;;;;;6.17;53.03;101603.81;6187049;23;20040;-85
2022/01/26 04:12:14;;;;;;;2.20;1.10;;;;;;;6.17;52.59;101609.84;6187567;23;20610;-84
2022/01/26 04:14:48;;;;;;;1.63;0.82;;;;;;;6.18;52.64;101603.00;6185254;23;20041;-83
2022/01/26 04:17:19;;;;;;;2.85;1.05;;;;;;;6.14;52.58;101604.53;6186467;23;20017;-80
2022/01/26 04:19:54;;;;;;;3.90;1.35;;;;;;;6.14;52.71;101608.75;6188805;23;20025;-86
2022/01/26 04:22:35;;;;;;;1.30;0.75;;;;;;;6.11;52.63;101606.00;6203622;22;20021;-85
2022/01/26 04:25:05;;;;;;;3.38;1.23;;;;;;;6.03;53.17;101601.28;6194494;23;20031;-82
2022/01/26 04:27:38;;;;;;;3.45;1.20;;;;;;;6.01;52.99;101599.41;6185551;23;20471;-83
2022/01/26 04:30:08;;;;;;;2.05;1.05;;;;;;;5.94;53.53;101595.59;6185612;23;20021;-83
2022/01/26 04:32:38;;;;;;;4.65;1.27;;;;;;;5.94;53.51;101607.50;6189594;23;20029;-85
2022/01/26 04:35:09;;;;;;;1.92;1.20;;;;;;;5.87;53.61;101598.53;6192824;23;20029;-85
2022/01/26 04:37:54;;;;;;;2.55;1.00;;;;;;;5.84;54.55;101604.38;6187874;23;20092;-87
2022/01/26 04:40:23;;;;;;;2.45;1.25;;;;;;;5.73;54.60;101605.38;6187517;23;20023;-85
2022/01/26 04:42:58;;;;;;;2.20;1.50;;;;;;;5.72;54.55;101607.84;6187486;23;20032;-87
2022/01/26 04:45:26;;;;;;;2.08;1.10;;;;;;;5.72;54.94;101615.56;6187726;23;20348;-84
2022/01/26 04:47:57;;;;;;;2.65;1.25;;;;;;;5.70;54.37;101617.13;6185111;23;20021;-83
2022/01/26 04:50:25;;;;;;;3.22;1.75;;;;;;;5.66;55.74;101626.34;6185493;23;20025;-86
2022/01/26 04:52:54;;;;;;;2.78;1.35;;;;;;;5.64;55.66;101631.38;6186536;23;20021;-83
2022/01/26 04:55:22;;;;;;;3.03;1.38;;;;;;;5.62;55.18;101627.81;6185162;23;20028;-84
2022/01/26 04:57:51;;;;;;;3.30;1.90;;;;;;;5.61;55.43;101636.31;6186936;23;20076;-87
2022/01/26 05:00:19;;;;;;;2.38;1.52;;;;;;;5.61;56.56;101630.28;6185947;23;20456;-85
2022/01/26 05:02:48;;;;;;;2.80;1.50;;;;;;;5.57;56.24;101639.47;6184006;23;20038;-83
2022/01/26 05:05:18;;;;;;;2.45;1.23;;;;;;;5.52;56.48;101651.13;6182328;23;20021;-82
2022/01/26 05:07:46;;;;;;;2.58;1.35;;;;;;;5.51;56.77;101644.22;6181949;23;20096;-83
2022/01/26 05:10:15;;;;;;;3.25;1.15;;;;;;;5.49;56.44;101632.94;6181771;23;20096;-85
2022/01/26 05:12:43;;;;;;;3.13;1.40;;;;;;;5.45;59.11;101630.97;6185141;23;20032;-86
2022/01/26 05:15:14;;;;;;;2.78;1.52;;;;;;;5.27;57.97;101632.34;6184519;23;20099;-85
2022/01/26 05:17:43;;;;;;;3.10;1.45;;;;;;;5.08;58.18;101631.16;6183946;23;20091;-84
2022/01/26 05:20:13;;;;;;;2.72;1.52;;;;;;;5.02;59.08;101643.59;6187463;23;20048;-84
2022/01/26 05:22:44;;;;;;;2.00;1.58;;;;;;;5.00;59.28;101643.47;6184919;22;20028;-81
2022/01/26 05:25:14;;;;;;;4.50;1.65;;;;;;;4.99;59.33;101640.81;6182117;23;20598;-82
2022/01/26 05:27:42;;;;;;;2.97;1.75;;;;;;;5.02;59.66;101656.41;6182187;23;20092;-81
2022/01/26 05:30:12;;;;;;;2.83;1.45;;;;;;;5.03;60.08;101661.63;6182337;23;20017;-80
2022/01/26 05:32:40;;;;;;;4.53;1.90;;;;;;;5.03;59.52;101660.75;6180412;23;20029;-83
2022/01/26 05:35:10;;;;;;;3.90;1.88;;;;;;;5.05;59.38;101666.88;6180667;23;20076;-84
2022/01/26 05:37:39;;;;;;;3.13;1.55;;;;;;;5.09;60.44;101667.97;6181775;23;20541;-83
2022/01/26 05:40:11;;;;;;;5.90;2.28;;;;;;;5.11;60.33;101676.63;6180914;23;20022;-78
2022/01/26 05:42:41;;;;;;;4.32;2.00;;;;;;;5.08;61.26;101667.06;6180877;23;20025;-81
2022/01/26 05:45:19;;;;;;;3.60;1.98;;;;;;;5.01;61.48;101660.63;6181623;23;20531;-77
2022/01/26 05:47:48;;;;;;;3.45;1.83;;;;;;;5.04;63.10;101658.31;6181220;23;20020;-79
2022/01/26 05:50:18;;;;;;;5.30;2.05;;;;;;;4.98;63.16;101655.31;6182308;23;20336;-83
2022/01/26 05:52:47;;;;;;;4.63;2.35;;;;;;;4.93;63.51;101656.69;6180413;23;20024;-79
2022/01/26 05:55:17;;;;;;;3.78;1.88;;;;;;;4.83;62.57;101638.91;6181982;23;20021;-81
2022/01/26 05:57:45;;;;;;;3.83;1.98;;;;;;;4.96;62.44;101667.16;6182582;23;20490;-81
2022/01/26 06:00:15;;;;;;;3.40;2.10;;;;;;;4.98;62.88;101675.84;6184569;23;20725;-82
2022/01/26 06:02:46;;;;;;;3.90;1.90;;;;;;;4.96;61.58;101666.25;6182457;23;20083;-81
2022/01/26 06:05:15;;;;;;;4.80;2.22;;;;;;;4.91;62.18;101670.19;6182161;23;20024;-81
2022/01/26 06:07:43;;;;;;;4.55;2.47;;;;;;;4.86;60.92;101667.34;6181855;23;20459;-80
2022/01/26 06:10:12;;;;;;;4.50;1.95;;;;;;;4.79;63.22;101671.16;6182513;23;20030;-81
2022/01/26 06:12:42;;;;;;;5.18;1.70;;;;;;;4.77;63.57;101665.03;6183364;23;20032;-81
2022/01/26 06:15:11;;;;;;;3.40;2.10;;;;;;;4.73;63.19;101657.91;6183998;23;20021;-83
2022/01/26 06:17:39;;;;;;;5.38;2.50;;;;;;;4.70;63.80;101665.41;6183611;23;20021;-82
2022/01/26 06:20:09;;;;;;;3.70;1.92;;;;;;;4.67;63.34;101662.63;6184104;23;20021;-83
2022/01/26 06:22:39;;;;;;;4.88;2.10;;;;;;;4.64;64.44;101672.69;6185371;22;20017;-80
2022/01/26 06:25:09;;;;;;;4.57;2.20;;;;;;;4.52;63.80;101675.28;6189730;23;20096;-85
2022/01/26 06:27:38;;;;;;;4.38;2.03;;;;;;;4.36;63.81;101663.09;6185181;23;20053;-84
2022/01/26 06:30:10;;;;;;;2.25;1.60;;;;;;;4.23;64.67;101665.59;6184287;23;20467;-88
2022/01/26 06:32:40;;;;;;;2.63;1.77;;;;;;;4.09;65.75;101659.50;6183958;23;20268;-87
2022/01/26 06:35:11;;;;;;;3.72;2.15;;;;;;;3.90;64.80;101647.09;6185157;23;20021;-78
2022/01/26 06:37:40;;;;;;;5.65;2.17;;;;;;;3.76;65.46;101651.22;6184221;23;20021;-81
2022/01/26 06:40:10;;;;;;;5.78;1.77;;;;;;;3.80;66.20;101660.00;6184653;23;20059;-80
2022/01/26 06:42:50;;;;;;;5.20;2.35;;;;;;;3.81;64.73;101651.56;6181450;23;20029;-80
2022/01/26 06:45:23;;;;;;;4.15;1.92;;;;;;;3.79;64.72;101658.25;6184756;23;20025;-80
2022/01/26 06:47:59;;;;;;;;;;;;;;;3.74;65.99;101664.72;6184358;23;20028;-76
2022/01/26 06:50:27;;;;;;;3.60;1.77;;;;;;;3.72;65.51;101666.25;6184186;23;19920;-79
2022/01/26 06:52:56;;;;;;;4.53;1.83;;;;;;;3.67;65.38;101667.63;6184019;23;20049;-87
2022/01/26 06:55:24;;;;;;;4.25;1.90;;;;;;;3.61;66.27;101673.16;6184836;23;20090;-84
2022/01/26 06:57:53;;;;;;;2.85;1.73;;;;;;;3.65;66.31;101679.41;6185705;23;20129;-82
2022/01/26 07:00:23;;;;;;;4.68;1.45;;;;;;;3.64;66.12;101667.38;6187921;23;20017;-85
2022/01/26 07:02:54;;;;;;;4.47;1.98;;;;;;;3.69;66.80;101683.97;6184344;23;20025;-83
2022/01/26 07:05:23;;;;;;;3.03;1.55;;;;;;;3.72;67.61;101681.63;6184123;23;20281;-82
2022/01/26 07:07:52;;;;;;;3.95;1.85;;;;;;;3.77;67.91;101681.16;6183516;23;20071;-82
2022/01/26 07:10:21;;;;;;;4.43;1.75;;;;;;;3.85;68.06;101676.59;6184289;23;20025;-84
2022/01/26 07:12:50;;;;;;;2.65;1.25;;;;;;;3.86;67.47;101670.69;6183721;23;20053;-84
2022/01/26 07:23:47;;;;;;;4.20;1.80;;;;;;;3.82;65.86;101678.03;6188143;22;20036;-84
2022/01/26 07:26:16;;;;;;;6.43;1.83;;;;;;;3.74;65.37;101673.28;6191962;23;20021;-84
2022/01/26 07:28:44;;;;;;;4.07;1.85;;;;;;;3.68;67.67;101669.38;6195893;23;20494;-85
2022/01/26 07:31:13;;;;;;;3.15;1.60;;;;;;;3.64;66.78;101678.53;6191444;23;20052;-82
2022/01/26 07:33:43;;;;;;;3.67;1.70;;;;;;;3.66;66.34;101676.06;6189727;23;20092;-84
2022/01/26 07:36:12;;;;;;;2.95;1.58;;;;;;;3.68;66.81;101674.50;6185588;23;20124;-83
2022/01/26 07:38:40;;;;;;;6.65;2.35;;;;;;;3.74;65.47;101686.06;6184466;23;20075;-81
2022/01/26 07:41:09;;;;;;;3.65;1.92;;;;;;;3.78;66.13;101689.75;6184786;23;20021;-84
2022/01/26 07:43:37;;;;;;;3.47;2.05;;;;;;;3.80;64.79;101693.28;6183039;23;20060;-85
2022/01/26 07:46:06;;;;;;;3.88;1.65;;;;;;;3.75;65.45;101676.72;6184105;23;20087;-84
2022/01/26 07:48:35;;;;;;;3.72;1.90;;;;;;;3.80;64.29;101684.72;6183590;23;20068;-84
2022/01/26 07:51:05;;;;;;;4.63;1.58;;;;;;;3.74;64.92;101674.94;6184070;23;20021;-82
2022/01/26 07:53:34;;;;;;;4.43;1.92;;;;;;;3.75;64.45;101679.28;6183367;23;20309;-81
2022/01/26 07:56:02;;;;;;;7.32;2.25;;;;;;;3.74;65.37;101680.06;6184098;23;20025;-81
2022/01/26 07:58:31;;;;;;;3.85;2.15;;;;;;;3.71;66.67;101679.81;6185155;23;20075;-81
2022/01/26 08:00:59;;;;;;;6.20;2.17;;;;;;;3.71;66.14;101679.81;6185815;23;20020;-81
2022/01/26 08:03:33;;;;;;;3.25;1.70;;;;;;;3.71;67.49;101684.94;6183320;23;20097;-81
2022/01/26 08:06:01;;;;;;;3.67;1.50;;;;;;;3.74;67.76;101687.75;6183576;23;20017;-80
2022/01/26 08:08:32;;;;;;;4.57;1.85;;;;;;;3.75;67.24;101681.84;6183275;23;20021;-80
2022/01/26 08:11:01;;;;;;;3.85;1.80;;;;;;;3.74;65.94;101686.06;6183458;23;20083;-82
2022/01/26 08:13:30;;;;;;;4.15;1.80;;;;;;;3.73;66.45;101688.50;6183031;23;20477;-81
2022/01/26 08:15:58;;;;;;;2.70;1.55;;;;;;;3.68;67.47;101684.72;6183159;23;20028;-82
2022/01/26 08:18:27;;;;;;;3.05;1.50;;;;;;;3.59;67.21;101674.72;6183192;23;20455;-82
2022/01/26 08:21:01;;;;;;;4.18;1.55;;;;;;;3.63;67.71;101692.09;6182947;23;20418;-82
2022/01/26 08:23:31;;;;;;;3.38;1.85;;;;;;;3.62;67.77;101690.31;6184546;22;20032;-83
2022/01/26 08:26:00;;;;;;;4.55;2.03;;;;;;;3.59;67.04;101684.97;6182655;23;20021;-81
2022/01/26 08:28:34;;;;;;;2.60;1.50;;;;;;;3.61;67.65;101682.50;6183215;23;20025;-82
2022/01/26 08:31:03;;;;;;;6.50;2.00;;;;;;;3.62;66.41;101679.16;6183162;23;20460;-83
2022/01/26 08:33:31;;;;;;;3.15;1.98;;;;;;;3.61;65.74;101682.50;6182139;23;20071;-82
2022/01/26 08:36:00;;;;;;;5.15;1.90;;;;;;;3.60;65.72;101670.47;6183343;23;20017;-82
2022/01/26 08:38:28;;;;;;;2.35;1.50;;;;;;;3.60;67.07;101667.91;6182828;23;20052;-83
2022/01/26 08:40:58;;;;;;;4.32;1.90;;;;;;;3.59;66.27;101661.91;6183543;23;20048;-82
2022/01/26 08:43:42;;;;;;;2.95;1.60;;;;;;;3.58;66.24;101672.06;6182548;23;20025;-82
2022/01/26 08:46:10;;;;;;;2.90;1.50;;;;;;;3.53;66.03;101670.06;6182484;23;20675;-81
2022/01/26 08:48:39;;;;;;;4.85;2.42;;;;;;;3.52;66.77;101678.50;6183059;23;20135;-83
2022/01/26 08:51:07;;;;;;;4.43;1.77;;;;;;;3.49;65.96;101673.16;6183030;23;20048;-81
2022/01/26 08:53:36;;;;;;;2.80;1.60;;;;;;;3.44;66.60;101669.41;6182655;23;20045;-82
2022/01/26 08:56:06;;;;;;;3.55;1.85;;;;;;;3.38;67.85;101676.63;6183493;23;20028;-81
2022/01/26 08:58:35;;;;;;;3.53;1.42;;;;;;;3.36;67.56;101676.50;6184196;23;20535;-80
2022/01/26 09:01:03;;;;;;;6.25;2.15;;;;;;;3.38;66.63;101675.72;6187752;23;20024;-80
2022/01/26 09:03:38;;;;;;;3.30;1.75;;;;;;;3.36;66.13;101680.72;6182999;23;20028;-81
2022/01/26 09:06:06;;;;;;;2.88;1.58;;;;;;;3.34;67.21;101679.72;6182866;23;20498;-82
2022/01/26 09:08:35;;;;;;;3.58;1.63;;;;;;;3.31;65.71;101671.84;6183585;23;20021;-81
2022/01/26 09:11:05;;;;;;;2.38;1.48;;;;;;;3.31;66.94;101682.94;6182753;23;20080;-82
2022/01/26 09:13:34;;;;;;;3.55;1.35;;;;;;;3.31;67.39;101675.28;6182376;23;20025;-81
2022/01/26 09:16:06;;;;;;;4.88;1.50;;;;;;;3.30;69.22;101670.94;6182764;23;20017;-81
2022/01/26 09:18:44;;;;;;;3.90;1.88;;;;;;;3.30;67.64;101676.06;6182733;23;20096;-81
2022/01/26 09:21:13;;;;;;;3.80;1.73;;;;;;;3.22;67.94;101656.69;6187883;23;20021;-82
2022/01/26 09:23:41;;;;;;;2.50;1.60;;;;;;;3.28;68.85;101664.81;6184162;22;20021;-82
2022/01/26 09:26:11;;;;;;;2.92;1.30;;;;;;;3.26;67.75;101662.94;6182745;23;20060;-81
2022/01/26 09:28:40;;;;;;;4.25;2.22;;;;;;;3.22;66.44;101660.94;6182889;23;20025;-81
2022/01/26 09:31:08;;;;;;;5.75;2.08;;;;;;;3.15;66.71;101660.47;6182219;23;20072;-81
2022/01/26 09:33:37;;;;;;;5.53;2.28;;;;;;;3.12;66.49;101665.38;6181927;23;20053;-81
2022/01/26 09:36:07;;;;;;;5.32;2.00;;;;;;;3.08;66.52;101682.94;6182373;23;20064;-81
2022/01/26 09:38:35;;;;;;;3.85;1.80;;;;;;;3.02;66.34;101687.56;6182087;23;20021;-81
2022/01/26 09:41:06;;;;;;;5.68;2.00;;;;;;;2.97;66.89;101689.78;6182134;23;20460;-80
2022/01/26 09:43:36;;;;;;;3.28;1.95;;;;;;;2.92;67.97;101692.00;6181990;23;20100;-79
2022/01/26 09:46:05;;;;;;;5.43;1.88;;;;;;;2.89;68.32;101688.34;6181694;23;20487;-81
2022/01/26 09:48:35;;;;;;;5.22;2.22;;;;;;;2.86;67.87;101694.13;6182722;23;20471;-82
2022/01/26 09:51:04;;;;;;;5.03;1.98;;;;;;;2.82;67.77;101680.94;6182209;23;20021;-80
2022/01/26 09:53:33;;;;;;;3.50;2.25;;;;;;;2.78;67.40;101678.97;6181894;23;20068;-81
2022/01/26 09:56:02;;;;;;;5.03;2.58;;;;;;;2.70;67.42;101681.84;6182947;23;20426;-80
2022/01/26 09:58:31;;;;;;;4.72;1.83;;;;;;;2.62;68.28;101679.47;6185829;23;20076;-81
2022/01/26 10:01:03;;;;;;;4.57;2.08;;;;;;;2.60;68.66;101681.00;6189020;23;20244;-80
2022/01/26 10:03:33;;;;;;;4.67;2.03;;;;;;;2.57;68.33;101685.91;6184815;23;20021;-80
2022/01/26 10:06:03;;;;;;;5.63;2.75;;;;;;;2.53;69.47;101689.00;6182448;23;20326;-80
2022/01/26 10:08:59;;;;;;;6.05;2.72;;;;;;;2.49;69.68;101690.41;6183050;23;20025;-80
2022/01/26 10:17:30;;;;;;;7.07;3.05;;;;;;;2.32;70.11;101698.44;6091440;23;20034;-81
2022/01/26 10:20:02;;;;;;;8.07;2.63;;;;;;;2.24;71.35;101698.72;6091415;23;20023;-80
2022/01/26 10:22:33;;;;;;;;;;;;;;;2.25;73.07;101703.06;6145377;22;20024;-81
2022/01/26 10:25:13;;;;;;;4.90;2.30;;;;;;;2.25;74.49;101697.97;6182388;23;19939;-80
2022/01/26 10:27:44;;;;;;;4.13;2.05;;;;;;;2.30;74.82;101691.53;6184251;23;20021;-82
2022/01/26 10:30:15;;;;;;;4.63;1.90;;;;;;;2.34;74.84;101700.34;6183387;23;20056;-80
2022/01/26 10:32:47;;;;;;;3.08;1.52;;;;;;;2.37;74.22;101694.56;6181990;23;20079;-80
2022/01/26 10:35:17;;;;;;;5.50;2.13;;;;;;;2.41;74.11;101701.72;6181759;23;20071;-81
2022/01/26 10:37:52;;;;;;;4.32;2.03;;;;;;;2.44;72.93;101696.81;6181594;23;20021;-81
2022/01/26 10:40:23;;;;;;;3.88;1.95;;;;;;;2.45;72.91;101696.03;6182353;23;20467;-81
2022/01/26 10:42:58;;;;;;;4.13;1.67;;;;;;;2.49;72.24;101688.72;6181127;23;20024;-80
2022/01/26 10:45:55;;;;;;;3.50;1.92;;;;;;;2.53;72.39;101683.88;6183044;23;20519;-79
2022/01/26 10:48:30;;;;;;;5.22;1.70;;;;;;;2.55;73.87;101684.88;6182739;23;20056;-81
2022/01/26 10:54:11;;;;;;;3.88;2.03;;;;;;;2.54;74.27;101681.41;6182313;23;20021;-81
2022/01/26 10:56:40;;;;;;;4.45;1.90;;;;;;;2.52;74.19;101662.56;6182999;23;20096;-81
2022/01/26 10:59:09;;;;;;;3.92;1.77;;;;;;;2.52;74.16;101667.66;6183532;23;20273;-81
2022/01/26 11:01:39;;;;;;;5.00;2.00;;;;;;;2.48;74.92;101658.88;6186097;23;20028;-81
2022/01/26 11:04:10;;;;;;;4.40;1.83;;;;;;;2.48;74.81;101658.88;6185042;23;20084;-81
2022/01/26 11:06:41;;;;;;;3.58;1.80;;;;;;;2.42;74.84;101650.72;6184265;23;20021;-80
2022/01/26 11:09:13;;;;;;;3.05;1.60;;;;;;;2.46;74.55;101662.97;6183389;23;20029;-80
2022/01/26 11:11:42;;;;;;;4.50;2.30;;;;;;;2.47;74.85;101656.19;6181542;23;20025;-81
2022/01/26 11:14:21;;;;;;;4.03;1.90;;;;;;;2.48;74.61;101663.97;6182891;23;20069;-83
2022/01/26 11:16:53;;;;;;;3.65;1.75;;;;;;;2.48;74.59;101663.09;6183195;23;20025;-81
2022/01/26 11:19:23;;;;;;;3.70;2.08;;;;;;;2.50;74.00;101671.75;6183026;23;20060;-80
2022/01/26 11:21:52;;;;;;;4.80;2.33;;;;;;;2.51;74.14;101670.97;6182556;23;20043;-80
2022/01/26 11:24:23;;;;;;;4.13;1.80;;;;;;;2.53;73.75;101668.53;6185351;22;20079;-80
2022/01/26 11:27:04;;;;;;;6.13;2.35;;;;;;;2.53;73.76;101684.75;6182842;23;20095;-80
2022/01/26 11:29:37;;;;;;;5.10;2.10;;;;;;;2.45;72.38;101673.97;6183098;23;20587;-81
2022/01/26 11:32:10;;;;;;;8.15;2.63;;;;;;;2.41;71.54;101673.63;6183178;23;20027;-80
2022/01/26 11:34:41;;;;;;;5.47;2.05;;;;;;;2.25;72.25;101657.09;6183226;23;20017;-80
2022/01/26 11:37:12;;;;;;;5.97;2.55;;;;;;;2.29;72.97;101669.34;6182281;23;20471;-81
2022/01/26 11:45:14;;;;;;;5.40;2.22;;;;;;;2.13;73.71;101680.78;6183931;23;20462;-80
2022/01/26 11:47:43;;;;;;;6.80;2.38;;;;;;;2.12;74.62;101684.13;6183119;23;20057;-81
2022/01/26 11:50:16;;;;;;;4.63;2.58;;;;;;;2.08;74.47;101682.97;6182606;23;20071;-81
2022/01/26 11:52:48;;;;;;;5.90;2.97;;;;;;;2.03;75.10;101681.72;6183704;23;20071;-80
2022/01/26 11:55:30;;;;;;;5.38;2.63;;;;;;;1.98;75.17;101677.94;6182536;23;20028;-80
2022/01/26 11:58:09;;;;;;;4.47;2.22;;;;;;;1.91;74.59;101681.66;6183247;23;20025;-81
2022/01/26 12:00:55;;;;;;;5.72;2.88;;;;;;;1.84;75.08;101670.06;6181760;23;20021;-80
2022/01/26 12:03:32;;;;;;;6.30;2.22;;;;;;;1.84;75.48;101687.03;6186052;23;20029;-80
2022/01/26 12:06:02;;;;;;;6.65;2.38;;;;;;;1.81;75.34;101690.25;6183965;23;20051;-80
2022/01/26 12:08:36;;;;;;;5.32;2.70;;;;;;;1.78;75.59;101692.53;6183307;23;20427;-80
2022/01/26 12:11:07;;;;;;;4.75;2.20;;;;;;;1.76;76.25;101678.75;6182994;23;20029;-80
2022/01/26 12:13:38;;;;;;;4.75;2.22;;;;;;;1.74;76.39;101684.50;6183187;23;20021;-80
2022/01/26 12:16:11;;;;;;;4.57;1.80;;;;;;;1.72;76.46;101680.94;6183134;23;20020;-80
2022/01/26 12:18:46;;;;;;;7.38;2.28;;;;;;;1.72;76.28;101675.84;6182935;23;20029;-80
2022/01/26 12:32:45;;;;;;;3.80;1.90;;;;;;;1.55;78.80;101685.59;6182339;23;20075;-80
2022/01/26 12:35:29;;;;;;;3.63;1.55;;;;;;;1.56;79.52;101691.59;6182778;23;20021;-80
2022/01/26 12:38:05;;;;;;;6.95;2.70;;;;;;;1.57;79.06;101685.72;6182746;23;20059;-80
2022/01/26 12:43:35;;;;;;;7.68;3.05;;;;;;;1.56;79.42;101691.59;6182736;23;20557;-80
2022/01/26 12:46:05;;;;;;;6.93;2.60;;;;;;;1.53;79.07;101699.00;6182604;23;20060;-80
2022/01/26 12:48:34;;;;;;;9.45;6.18;;;;;;;1.51;78.84;101705.63;6181269;23;20188;-80
2022/01/26 12:51:06;;;;;;;8.48;3.33;;;;;;;1.47;78.58;101709.63;6182534;23;20025;-80
2022/01/26 12:53:37;;;;;;;10.82;3.55;;;;;;;1.43;79.01;101716.09;6182313;23;20072;-80
2022/01/26 12:56:07;;;;;;;7.90;2.70;;;;;;;1.40;79.64;101722.63;6182948;23;20479;-81
2022/01/26 12:58:38;;;;;;;7.53;2.80;;;;;;;1.32;79.58;101711.78;6182661;23;20021;-81
2022/01/26 13:01:08;;;;;;;8.68;3.75;;;;;;;1.32;79.96;101718.56;6183124;23;20021;-80
2022/01/26 13:03:38;;;;;;;7.68;3.03;;;;;;;1.29;80.74;101723.41;6182480;23;20084;-80
2022/01/26 13:06:08;;;;;;;7.10;2.90;;;;;;;1.22;80.85;101722.00;6187046;23;20025;-80
2022/01/26 13:08:46;;;;;;;6.68;3.05;;;;;;;1.18;82.12;101722.53;6182916;23;20024;-80
2022/01/26 13:11:22;;;;;;;6.70;2.85;;;;;;;1.13;82.57;101716.16;6187604;23;20020;-80
2022/01/26 13:13:51;;;;;;;10.25;3.30;;;;;;;1.09;83.08;101724.31;6188256;23;20037;-80
2022/01/26 13:16:25;;;;;;;5.20;2.53;;;;;;;1.07;84.24;101710.53;6184307;23;20076;-81
2022/01/26 13:19:11;;;;;;;5.53;2.95;;;;;;;1.08;84.55;101712.31;6181559;23;20103;-81
2022/01/26 13:22:00;;;;;;;8.90;3.17;;;;;;;1.06;85.37;101708.78;6181977;23;20025;-80
2022/01/26 13:24:54;;;;;;;5.30;2.55;;;;;;;1.03;84.33;101705.19;6185233;22;20683;-80
2022/01/26 13:27:34;;;;;;;6.55;3.13;;;;;;;0.99;85.25;101708.25;6183618;23;20100;-80
2022/01/26 13:30:32;;;;;;;7.57;3.05;;;;;;;0.94;86.04;101704.44;6182415;23;20028;-81
2022/01/26 13:35:53;;;;;;;6.10;2.53;;;;;;;0.92;87.40;101711.06;6164245;23;20025;-80
2022/01/26 13:38:34;;;;;;;5.88;2.17;;;;;;;0.91;88.38;101709.25;6182672;23;20029;-80
2022/01/26 13:41:18;;;;;;;7.75;2.47;;;;;;;0.95;93.83;101711.31;6183392;23;20463;-79